createdAt,value
2018-11-04T00:00:19.194Z,10.20
2018-11-04T00:02:48.178Z,9.70
2018-11-04T00:05:16.856Z,9.90
2018-11-04T00:07:45.968Z,9.93
2018-11-04T00:10:14.309Z,11.00
2018-11-04T00:12:42.659Z,12.27
2018-11-04T00:15:11.716Z,10.20
2018-11-04T00:17:40.501Z,10.50
2018-11-04T00:20:11.043Z,10.80
2018-11-04T00:22:39.554Z,10.87
2018-11-04T00:25:09.128Z,9.77
2018-11-04T00:27:37.703Z,11.33
2018-11-04T00:30:07.696Z,13.13
2018-11-04T00:32:36.070Z,12.00
2018-11-04T00:35:04.654Z,11.87
2018-11-04T00:37:33.010Z,12.97
2018-11-04T00:40:01.350Z,13.60
2018-11-04T00:42:29.762Z,10.90
2018-11-04T00:44:58.105Z,12.67
2018-11-04T00:47:26.472Z,13.40
2018-11-04T00:49:54.828Z,13.20
2018-11-04T00:52:23.232Z,13.60
2018-11-04T00:54:51.600Z,14.07
2018-11-04T00:57:19.959Z,14.27
2018-11-04T00:59:48.316Z,13.40
2018-11-04T01:02:16.658Z,14.10
2018-11-04T01:04:45.020Z,13.40
2018-11-04T01:07:13.404Z,13.97
2018-11-04T01:09:41.759Z,14.07
2018-11-04T01:12:10.107Z,13.70
2018-11-04T01:14:38.445Z,14.70
2018-11-04T01:17:06.790Z,14.23
2018-11-04T01:19:35.137Z,13.77
2018-11-04T01:22:03.494Z,15.00
2018-11-04T01:24:32.534Z,14.00
2018-11-04T01:27:00.792Z,12.73
2018-11-04T01:29:29.131Z,15.27
2018-11-04T01:31:57.492Z,13.73
2018-11-04T01:34:25.838Z,13.90
2018-11-04T01:36:54.202Z,14.03
2018-11-04T01:39:22.549Z,14.00
2018-11-04T01:41:50.906Z,13.83
2018-11-04T01:44:19.268Z,14.50
2018-11-04T01:46:47.617Z,14.53
2018-11-04T01:49:15.948Z,14.50
2018-11-04T01:51:44.376Z,13.97
2018-11-04T01:54:12.717Z,13.63
2018-11-04T01:56:41.082Z,14.23
2018-11-04T01:59:09.644Z,14.90
2018-11-04T02:01:37.997Z,15.20
2018-11-04T02:04:06.777Z,15.07
2018-11-04T02:06:35.148Z,14.73
2018-11-04T02:09:03.553Z,15.73
2018-11-04T02:11:31.910Z,14.10
2018-11-04T02:14:00.248Z,14.43
2018-11-04T02:16:28.608Z,14.03
2018-11-04T02:18:56.961Z,14.93
2018-11-04T02:21:25.432Z,13.83
2018-11-04T02:23:53.797Z,15.07
2018-11-04T02:26:22.250Z,14.20
2018-11-04T02:28:50.605Z,14.40
2018-11-04T02:31:18.959Z,14.60
2018-11-04T02:33:47.302Z,14.60
2018-11-04T02:36:15.686Z,15.77
2018-11-04T02:38:44.040Z,15.10
2018-11-04T02:41:12.399Z,14.67
2018-11-04T02:43:40.750Z,15.77
2018-11-04T02:46:09.186Z,14.83
2018-11-04T02:48:37.960Z,14.47
2018-11-04T02:51:06.540Z,14.53
2018-11-04T02:53:34.879Z,15.40
2018-11-04T02:56:03.231Z,14.90
2018-11-04T02:58:31.591Z,16.23
2018-11-04T03:00:59.945Z,14.77
2018-11-04T03:03:28.265Z,16.80
2018-11-04T03:05:56.601Z,15.10
2018-11-04T03:08:24.979Z,15.53
2018-11-04T03:10:53.322Z,15.53
2018-11-04T03:13:21.733Z,15.80
2018-11-04T03:15:50.057Z,15.80
2018-11-04T03:18:18.425Z,15.37
2018-11-04T03:20:46.791Z,15.57
2018-11-04T03:23:15.128Z,15.90
2018-11-04T03:25:43.471Z,14.53
2018-11-04T03:28:11.912Z,15.97
2018-11-04T03:30:40.419Z,15.77
2018-11-04T03:33:09.621Z,15.93
2018-11-04T03:35:38.102Z,15.50
2018-11-04T03:38:06.988Z,17.10
2018-11-04T03:40:35.325Z,17.50
2018-11-04T03:43:03.666Z,16.40
2018-11-04T03:45:32.014Z,15.43
2018-11-04T03:48:00.360Z,16.83
2018-11-04T03:50:28.727Z,17.10
2018-11-04T03:53:02.335Z,15.53
2018-11-04T03:55:30.674Z,15.77
2018-11-04T03:57:59.020Z,16.30
2018-11-04T04:00:27.406Z,16.13
2018-11-04T04:02:55.778Z,17.97
2018-11-04T04:05:24.122Z,16.90
2018-11-04T04:07:52.465Z,16.30
2018-11-04T04:10:20.813Z,16.70
2018-11-04T04:12:49.140Z,17.80
2018-11-04T04:15:17.487Z,17.10
2018-11-04T04:17:45.849Z,18.77
2018-11-04T04:20:14.182Z,18.07
2018-11-04T04:22:42.516Z,18.23
2018-11-04T04:25:10.875Z,17.43
2018-11-04T04:27:39.360Z,18.27
2018-11-04T04:30:09.512Z,18.67
2018-11-04T04:32:37.846Z,17.53
2018-11-04T04:35:07.309Z,18.40
2018-11-04T04:37:35.673Z,18.20
2018-11-04T04:40:04.027Z,17.37
2018-11-04T04:42:32.372Z,17.50
2018-11-04T04:45:00.883Z,18.37
2018-11-04T04:47:29.230Z,17.37
2018-11-04T04:49:57.586Z,18.33
2018-11-04T04:52:25.921Z,18.90
2018-11-04T04:54:54.232Z,20.17
2018-11-04T04:57:22.577Z,20.03
2018-11-04T04:59:50.897Z,19.90
2018-11-04T05:02:19.230Z,19.27
2018-11-04T05:04:47.573Z,19.33
2018-11-04T05:07:15.922Z,18.27
2018-11-04T05:09:44.360Z,20.03
2018-11-04T05:12:12.714Z,18.20
2018-11-04T05:14:41.267Z,18.37
2018-11-04T05:17:09.621Z,20.80
2018-11-04T05:19:37.962Z,19.00
2018-11-04T05:22:07.008Z,19.53
2018-11-04T05:24:35.374Z,18.47
2018-11-04T05:27:03.914Z,21.13
2018-11-04T05:29:32.269Z,19.70
2018-11-04T05:32:00.624Z,20.17
2018-11-04T05:34:29.041Z,20.23
2018-11-04T05:36:57.384Z,19.47
2018-11-04T05:39:25.771Z,21.80
2018-11-04T05:41:54.145Z,20.20
2018-11-04T05:44:22.496Z,21.37
2018-11-04T05:46:50.861Z,19.97
2018-11-04T05:49:19.326Z,19.40
2018-11-04T05:51:47.687Z,22.53
2018-11-04T05:54:16.029Z,21.87
2018-11-04T05:56:44.380Z,23.47
2018-11-04T05:59:12.717Z,20.40
2018-11-04T06:01:41.082Z,22.03
2018-11-04T06:04:10.014Z,20.90
2018-11-04T06:06:38.482Z,20.03
2018-11-04T06:09:08.305Z,20.97
2018-11-04T06:11:36.656Z,22.50
2018-11-04T06:14:05.269Z,21.93
2018-11-04T06:16:33.684Z,21.33
2018-11-04T06:19:02.018Z,23.17
2018-11-04T06:21:30.540Z,23.10
2018-11-04T06:23:59.051Z,22.00
2018-11-04T06:26:27.406Z,22.73
2018-11-04T06:28:55.749Z,22.87
2018-11-04T06:31:24.239Z,21.33
2018-11-04T06:33:53.058Z,22.47
2018-11-04T06:36:21.664Z,24.50
2018-11-04T06:38:50.245Z,24.37
2018-11-04T06:41:18.836Z,23.53
2018-11-04T06:43:47.046Z,24.87
2018-11-04T06:46:15.411Z,24.10
2018-11-04T06:48:43.778Z,23.60
2018-11-04T06:51:12.279Z,23.07
2018-11-04T06:53:40.630Z,23.40
2018-11-04T06:56:08.977Z,22.97
2018-11-04T06:58:37.316Z,23.20
2018-11-04T07:01:05.651Z,23.07
2018-11-04T07:03:33.985Z,24.47
2018-11-04T07:06:02.333Z,24.97
2018-11-04T07:08:30.669Z,23.30
2018-11-04T07:10:59.034Z,23.77
2018-11-04T07:13:27.366Z,21.97
2018-11-04T07:15:55.705Z,23.90
2018-11-04T07:18:24.055Z,23.60
2018-11-04T07:20:52.391Z,25.13
2018-11-04T07:23:21.309Z,23.47
2018-11-04T07:25:49.711Z,24.90
2018-11-04T07:28:18.005Z,23.77
2018-11-04T07:30:46.357Z,23.13
2018-11-04T07:33:14.846Z,25.17
2018-11-04T07:35:43.184Z,24.63
2018-11-04T07:38:11.534Z,25.87
2018-11-04T07:40:39.861Z,24.47
2018-11-04T07:43:08.196Z,25.57
2018-11-04T07:45:36.557Z,24.77
2018-11-04T07:48:05.248Z,25.60
2018-11-04T07:50:33.644Z,24.53
2018-11-04T07:53:01.939Z,25.67
2018-11-04T07:55:30.293Z,23.50
2018-11-04T07:57:58.634Z,26.03
2018-11-04T08:00:26.972Z,25.90
2018-11-04T08:02:55.322Z,26.73
2018-11-04T08:05:23.667Z,26.60
2018-11-04T08:07:52.004Z,25.60
2018-11-04T08:10:20.781Z,25.63
2018-11-04T08:12:49.177Z,26.50
2018-11-04T08:15:17.518Z,25.73
2018-11-04T08:17:45.857Z,26.73
2018-11-04T08:20:14.190Z,26.97
2018-11-04T08:22:42.527Z,25.57
2018-11-04T08:25:10.909Z,27.07
2018-11-04T08:27:39.292Z,27.30
2018-11-04T08:30:08.543Z,27.50
2018-11-04T08:32:36.982Z,28.97
2018-11-04T08:35:05.895Z,30.07
2018-11-04T08:37:34.396Z,28.60
2018-11-04T08:40:03.218Z,27.63
2018-11-04T08:42:31.787Z,29.00
2018-11-04T08:45:00.137Z,27.43
2018-11-04T08:47:28.609Z,29.17
2018-11-04T08:49:56.986Z,29.70
2018-11-04T08:52:25.391Z,30.03
2018-11-04T08:54:53.741Z,30.80
2018-11-04T08:57:22.110Z,30.77
2018-11-04T08:59:50.497Z,29.97
2018-11-04T09:02:18.837Z,31.10
2018-11-04T09:04:47.161Z,33.63
2018-11-04T09:07:15.501Z,35.50
2018-11-04T09:09:43.887Z,31.13
2018-11-04T09:12:12.261Z,32.87
2018-11-04T09:14:40.614Z,30.37
2018-11-04T09:17:09.385Z,34.50
2018-11-04T09:19:37.737Z,32.60
2018-11-04T09:22:06.598Z,32.60
2018-11-04T09:24:34.741Z,33.90
2018-11-04T09:27:03.137Z,31.87
2018-11-04T09:29:31.585Z,33.13
2018-11-04T09:31:59.940Z,32.40
2018-11-04T09:34:28.324Z,31.67
2018-11-04T09:36:56.698Z,33.80
2018-11-04T09:39:25.043Z,32.87
2018-11-04T09:41:53.401Z,36.73
2018-11-04T09:44:21.764Z,33.03
2018-11-04T09:46:50.119Z,34.03
2018-11-04T09:49:18.468Z,31.90
2018-11-04T09:51:46.974Z,31.63
2018-11-04T09:54:15.359Z,32.57
2018-11-04T09:56:43.742Z,32.73
2018-11-04T09:59:12.081Z,32.73
2018-11-04T10:01:40.436Z,33.70
2018-11-04T10:04:08.809Z,33.83
2018-11-04T10:06:37.156Z,33.80
2018-11-04T10:09:07.865Z,31.17
2018-11-04T10:11:36.741Z,34.07
2018-11-04T10:14:05.152Z,33.13
2018-11-04T10:16:33.500Z,34.83
2018-11-04T10:19:02.025Z,33.73
2018-11-04T10:21:30.255Z,34.43
2018-11-04T10:23:58.638Z,33.47
2018-11-04T10:26:27.015Z,32.83
2018-11-04T10:28:55.374Z,33.10
2018-11-04T10:31:23.746Z,32.33
2018-11-04T10:33:52.133Z,33.83
2018-11-04T10:36:20.499Z,33.67
2018-11-04T10:38:48.881Z,32.93
2018-11-04T10:41:17.462Z,32.60
2018-11-04T10:43:45.836Z,34.30
2018-11-04T10:46:14.257Z,34.30
2018-11-04T10:48:42.609Z,33.60
2018-11-04T10:51:11.151Z,33.13
2018-11-04T10:53:39.494Z,33.40
2018-11-04T10:56:08.048Z,33.20
2018-11-04T10:58:36.426Z,33.47
2018-11-04T11:01:07.673Z,32.30
2018-11-04T11:03:36.647Z,33.67
2018-11-04T11:06:04.977Z,32.23
2018-11-04T11:08:33.329Z,33.80
2018-11-04T11:11:01.799Z,35.00
2018-11-04T11:13:30.588Z,33.87
2018-11-04T11:15:59.076Z,33.47
2018-11-04T11:18:27.648Z,32.67
2018-11-04T11:20:56.349Z,32.60
2018-11-04T11:23:24.688Z,34.40
2018-11-04T11:25:53.010Z,32.83
2018-11-04T11:28:21.358Z,33.70
2018-11-04T11:30:49.724Z,33.27
2018-11-04T11:33:18.084Z,33.53
2018-11-04T11:35:46.420Z,33.90
2018-11-04T11:38:14.755Z,33.67
2018-11-04T11:40:43.100Z,34.53
2018-11-04T11:43:11.453Z,33.80
2018-11-04T11:45:39.799Z,35.07
2018-11-04T11:48:08.615Z,32.03
2018-11-04T11:50:37.136Z,33.27
2018-11-04T11:53:05.916Z,35.90
2018-11-04T11:55:34.378Z,34.20
2018-11-04T11:58:02.737Z,35.43
2018-11-04T12:00:31.084Z,34.00
2018-11-04T12:02:59.426Z,34.83
2018-11-04T12:05:27.811Z,35.80
2018-11-04T12:07:56.159Z,35.90
2018-11-04T12:10:24.602Z,35.10
2018-11-04T12:12:52.954Z,38.00
2018-11-04T12:15:21.311Z,35.40
2018-11-04T12:17:49.759Z,35.63
2018-11-04T12:20:18.046Z,35.93
2018-11-04T12:22:46.607Z,34.83
2018-11-04T12:25:14.941Z,36.67
2018-11-04T12:27:43.464Z,33.50
2018-11-04T12:30:14.428Z,37.43
2018-11-04T12:32:42.785Z,35.97
2018-11-04T12:35:12.529Z,36.37
2018-11-04T12:37:41.257Z,35.10
2018-11-04T12:40:11.125Z,35.60
2018-11-04T12:42:39.459Z,36.50
2018-11-04T12:45:09.317Z,36.17
2018-11-04T12:47:37.826Z,33.67
2018-11-04T12:50:07.595Z,35.07
2018-11-04T12:52:35.946Z,37.57
2018-11-04T12:55:04.632Z,36.50
2018-11-04T12:57:32.990Z,38.23
2018-11-04T13:00:01.346Z,36.87
2018-11-04T13:02:29.716Z,36.30
2018-11-04T13:04:58.061Z,36.43
2018-11-04T13:07:26.399Z,38.33
2018-11-04T13:09:54.749Z,36.50
2018-11-04T13:12:23.097Z,37.00
2018-11-04T13:14:51.445Z,35.10
2018-11-04T13:17:19.805Z,38.57
2018-11-04T13:19:48.165Z,37.23
2018-11-04T13:22:16.512Z,36.50
2018-11-04T13:24:44.866Z,38.93
2018-11-04T13:27:13.238Z,38.70
2018-11-04T13:29:41.604Z,38.37
2018-11-04T13:32:10.031Z,40.60
2018-11-04T13:34:38.378Z,36.83
2018-11-04T13:37:07.186Z,37.50
2018-11-04T13:39:35.532Z,38.90
2018-11-04T13:42:03.935Z,38.63
2018-11-04T13:44:32.290Z,37.80
2018-11-04T13:47:00.639Z,37.83
2018-11-04T13:49:29.135Z,37.43
2018-11-04T13:51:57.369Z,36.77
2018-11-04T13:54:25.750Z,37.83
2018-11-04T13:56:54.113Z,38.90
2018-11-04T13:59:22.465Z,39.57
2018-11-04T14:01:50.807Z,37.40
2018-11-04T14:04:19.163Z,40.37
2018-11-04T14:06:47.543Z,39.60
2018-11-04T14:09:15.894Z,37.20
2018-11-04T14:11:44.267Z,36.73
2018-11-04T14:14:12.606Z,38.10
2018-11-04T14:16:40.959Z,39.63
2018-11-04T14:19:09.338Z,38.73
2018-11-04T14:21:37.690Z,37.87
2018-11-04T14:24:06.097Z,38.10
2018-11-04T14:26:34.431Z,39.00
2018-11-04T14:29:02.777Z,39.80
2018-11-04T14:31:31.132Z,38.10
2018-11-04T14:33:59.475Z,39.27
2018-11-04T14:36:27.854Z,39.23
2018-11-04T14:38:56.236Z,40.33
2018-11-04T14:41:24.591Z,38.77
2018-11-04T14:43:53.029Z,40.27
2018-11-04T14:46:21.425Z,36.83
2018-11-04T14:48:49.813Z,39.87
2018-11-04T14:51:18.467Z,38.63
2018-11-04T14:53:46.836Z,38.93
2018-11-04T14:56:15.187Z,38.73
2018-11-04T14:58:43.540Z,39.40
2018-11-04T15:01:12.019Z,41.30
2018-11-04T15:03:40.328Z,42.10
2018-11-04T15:06:08.672Z,37.67
2018-11-04T15:08:37.098Z,38.70
2018-11-04T15:11:05.474Z,38.93
2018-11-04T15:13:33.887Z,40.87
2018-11-04T15:16:02.396Z,40.00
2018-11-04T15:18:30.912Z,40.87
2018-11-04T15:20:59.241Z,38.47
2018-11-04T15:23:27.814Z,38.40
2018-11-04T15:25:56.158Z,40.70
2018-11-04T15:28:24.564Z,38.23
2018-11-04T15:30:52.917Z,40.23
2018-11-04T15:33:21.285Z,37.40
2018-11-04T15:35:49.621Z,39.67
2018-11-04T15:38:17.980Z,39.80
2018-11-04T15:40:46.329Z,39.93
2018-11-04T15:43:14.684Z,39.80
2018-11-04T15:45:43.049Z,38.60
2018-11-04T15:48:11.400Z,39.43
2018-11-04T15:50:39.741Z,39.10
2018-11-04T15:53:08.101Z,39.83
2018-11-04T15:55:37.277Z,38.43
2018-11-04T15:58:05.990Z,38.67
2018-11-04T16:00:34.331Z,39.43
2018-11-04T16:03:02.795Z,40.23
2018-11-04T16:05:31.244Z,40.40
2018-11-04T16:07:59.590Z,41.53
2018-11-04T16:10:27.937Z,42.00
2018-11-04T16:12:56.290Z,40.07
2018-11-04T16:15:24.661Z,41.93
2018-11-04T16:17:53.020Z,39.23
2018-11-04T16:20:21.400Z,40.23
2018-11-04T16:22:50.018Z,39.90
2018-11-04T16:25:18.414Z,43.07
2018-11-04T16:27:46.765Z,41.13
2018-11-04T16:30:15.938Z,40.73
2018-11-04T16:32:44.403Z,44.67
2018-11-04T16:35:13.711Z,41.03
2018-11-04T16:37:42.978Z,42.03
2018-11-04T16:40:11.500Z,40.53
2018-11-04T16:42:40.272Z,42.77
2018-11-04T16:45:13.372Z,42.80
2018-11-04T16:47:41.825Z,43.00
2018-11-04T16:50:11.228Z,43.93
2018-11-04T16:52:39.544Z,43.23
2018-11-04T16:55:08.563Z,41.77
2018-11-04T16:57:36.917Z,44.20
2018-11-04T17:00:06.059Z,43.77
2018-11-04T17:02:34.419Z,44.50
2018-11-04T17:05:02.889Z,43.10
2018-11-04T17:07:31.171Z,44.50
2018-11-04T17:09:59.527Z,43.60
2018-11-04T17:12:27.909Z,42.17
2018-11-04T17:14:56.283Z,43.23
2018-11-04T17:17:24.630Z,42.10
2018-11-04T17:19:53.017Z,43.40
2018-11-04T17:22:21.381Z,41.43
2018-11-04T17:24:49.991Z,43.00
2018-11-04T17:27:19.409Z,43.90
2018-11-04T17:29:47.976Z,45.70
2018-11-04T17:32:16.345Z,41.63
2018-11-04T17:34:44.859Z,41.10
2018-11-04T17:37:13.211Z,42.13
2018-11-04T17:39:41.571Z,40.80
2018-11-04T17:42:09.912Z,41.97
2018-11-04T17:44:38.297Z,40.40
2018-11-04T17:47:06.629Z,40.33
2018-11-04T17:49:34.985Z,40.17
2018-11-04T17:52:03.373Z,39.57
2018-11-04T17:54:31.743Z,41.00
2018-11-04T17:57:00.077Z,41.10
2018-11-04T17:59:28.436Z,41.20
2018-11-04T18:01:56.782Z,41.13
2018-11-04T18:04:25.103Z,37.97
2018-11-04T18:06:53.460Z,39.40
2018-11-04T18:09:21.821Z,39.57
2018-11-04T18:11:50.267Z,38.50
2018-11-04T18:14:18.642Z,40.33
2018-11-04T18:16:47.078Z,38.80
2018-11-04T18:19:15.444Z,36.43
2018-11-04T18:21:43.827Z,40.50
2018-11-04T18:24:12.202Z,38.63
2018-11-04T18:26:41.230Z,38.20
2018-11-04T18:29:09.603Z,38.37
2018-11-04T18:31:37.984Z,36.53
2018-11-04T18:34:06.528Z,37.17
2018-11-04T18:36:34.872Z,36.77
2018-11-04T18:39:04.061Z,38.03
2018-11-04T18:41:32.422Z,37.43
2018-11-04T18:44:01.055Z,36.43
2018-11-04T18:46:29.318Z,37.17
2018-11-04T18:48:58.104Z,37.70
2018-11-04T18:51:26.649Z,35.60
2018-11-04T18:53:55.068Z,36.13
2018-11-04T18:56:23.445Z,35.97
2018-11-04T18:58:52.281Z,36.30
2018-11-04T19:01:20.609Z,35.47
2018-11-04T19:03:48.969Z,36.70
2018-11-04T19:06:17.313Z,33.47
2018-11-04T19:08:46.568Z,33.33
2018-11-04T19:11:14.953Z,34.20
2018-11-04T19:13:43.328Z,33.43
2018-11-04T19:16:11.863Z,33.43
2018-11-04T19:18:40.289Z,36.07
2018-11-04T19:21:08.606Z,35.57
2018-11-04T19:23:36.944Z,33.87
2018-11-04T19:26:05.770Z,32.83
2018-11-04T19:28:34.100Z,31.97
2018-11-04T19:31:02.479Z,32.40
2018-11-04T19:33:30.907Z,32.87
2018-11-04T19:35:59.278Z,30.07
2018-11-04T19:38:27.629Z,32.10
2018-11-04T19:40:55.974Z,31.07
2018-11-04T19:43:24.392Z,30.93
2018-11-04T19:45:52.756Z,29.63
2018-11-04T19:48:21.328Z,30.97
2018-11-04T19:50:49.681Z,30.57
2018-11-04T19:53:18.051Z,28.97
2018-11-04T19:55:46.375Z,27.77
2018-11-04T19:58:14.755Z,30.17
2018-11-04T20:00:43.147Z,28.33
2018-11-04T20:03:11.516Z,29.17
2018-11-04T20:05:39.878Z,28.03
2018-11-04T20:08:08.248Z,29.77
2018-11-04T20:10:36.680Z,27.90
2018-11-04T20:13:10.500Z,29.17
2018-11-04T20:15:38.828Z,29.97
2018-11-04T20:18:12.695Z,28.80
2018-11-04T20:20:41.030Z,27.33
2018-11-04T20:23:09.376Z,26.90
2018-11-04T20:25:43.125Z,26.57
2018-11-04T20:28:11.440Z,26.47
2018-11-04T20:30:39.772Z,28.53
2018-11-04T20:33:09.855Z,28.57
2018-11-04T20:35:38.242Z,28.57
2018-11-04T20:38:06.816Z,28.97
2018-11-04T20:40:40.560Z,27.87
2018-11-04T20:43:08.939Z,26.97
2018-11-04T20:45:37.289Z,27.07
2018-11-04T20:50:37.494Z,28.20
2018-11-04T20:53:05.904Z,25.63
2018-11-04T20:55:40.212Z,27.63
2018-11-04T20:58:08.725Z,26.27
2018-11-04T21:00:36.997Z,25.27
2018-11-04T21:03:05.401Z,27.27
2018-11-04T21:05:33.769Z,28.03
2018-11-04T21:08:02.169Z,26.33
2018-11-04T21:10:30.511Z,25.87
2018-11-04T21:12:58.942Z,26.60
2018-11-04T21:15:27.289Z,25.50
2018-11-04T21:17:55.663Z,25.00
2018-11-04T21:20:24.027Z,26.03
2018-11-04T21:22:53.240Z,24.33
2018-11-04T21:25:21.631Z,24.93
2018-11-04T21:27:50.092Z,26.20
2018-11-04T21:30:18.374Z,24.93
2018-11-04T21:32:46.692Z,22.93
2018-11-04T21:35:15.041Z,23.00
2018-11-04T21:37:43.424Z,24.73
2018-11-04T21:40:11.814Z,24.57
2018-11-04T21:42:40.411Z,24.87
2018-11-04T21:45:10.464Z,24.87
2018-11-04T21:47:38.881Z,24.73
2018-11-04T21:50:08.200Z,24.03
2018-11-04T21:52:36.603Z,25.73
2018-11-04T21:55:05.497Z,24.50
2018-11-04T21:57:33.939Z,24.93
2018-11-04T22:00:02.208Z,24.30
2018-11-04T22:02:30.660Z,25.20
2018-11-04T22:04:58.963Z,27.07
2018-11-04T22:07:27.334Z,27.10
2018-11-04T22:09:55.686Z,26.43
2018-11-04T22:12:24.037Z,26.63
2018-11-04T22:14:52.416Z,25.33
2018-11-04T22:17:20.795Z,25.73
2018-11-04T22:19:49.178Z,26.13
2018-11-04T22:22:17.604Z,26.33
2018-11-04T22:24:45.910Z,27.67
2018-11-04T22:27:14.419Z,26.50
2018-11-04T22:29:42.796Z,26.47
2018-11-04T22:32:11.140Z,26.27
2018-11-04T22:34:39.509Z,26.13
2018-11-04T22:37:07.855Z,26.50
2018-11-04T22:39:36.237Z,28.63
2018-11-04T22:42:04.614Z,28.27
2018-11-04T22:44:32.969Z,29.60
2018-11-04T22:47:01.327Z,28.13
2018-11-04T22:49:29.686Z,30.30
2018-11-04T22:51:58.111Z,27.13
2018-11-04T22:54:26.494Z,29.07
2018-11-04T22:56:54.828Z,28.43
2018-11-04T22:59:23.197Z,29.57
2018-11-04T23:01:51.571Z,28.23
2018-11-04T23:04:24.917Z,28.83
2018-11-04T23:06:53.265Z,28.60
2018-11-04T23:09:21.824Z,28.83
2018-11-04T23:11:50.182Z,28.87
2018-11-04T23:14:18.597Z,29.20
2018-11-04T23:16:46.941Z,29.13
2018-11-04T23:19:15.294Z,30.20
2018-11-04T23:21:43.637Z,27.77
2018-11-04T23:24:12.225Z,31.03
2018-11-04T23:26:40.590Z,28.53
2018-11-04T23:29:09.117Z,30.10
2018-11-04T23:31:37.459Z,28.97
2018-11-04T23:34:06.079Z,29.70
2018-11-04T23:36:34.428Z,28.87
2018-11-04T23:39:02.840Z,29.73
2018-11-04T23:41:31.170Z,29.53
2018-11-04T23:43:59.542Z,29.73
2018-11-04T23:46:27.901Z,31.13
2018-11-04T23:48:56.252Z,30.50
2018-11-04T23:51:24.595Z,28.07
2018-11-04T23:53:52.954Z,30.23
2018-11-04T23:56:21.314Z,30.43
2018-11-04T23:58:49.670Z,30.50
